Time;durP1;ratioP1;P1;durP2;ratioP2;P2;SDS_P1;SDS_P2;PMS_P1;PMS_P2;Temp;Humidity;BMP_temperature;BMP_pressure;BME280_temperature;BME280_humidity;BME280_pressure;Samples;Min_cycle;Max_cycle;Signal;HPM_P1;HPM_P2
2023/12/05 00:02:07;;;;;;;5.50;5.00;;;;;;;16.64;51.41;98504.02;105195;1260;72361;-33
2023/12/05 00:04:36;;;;;;;5.60;4.70;;;;;;;16.63;51.41;98504.79;105199;1260;61290;-33
2023/12/05 00:07:04;;;;;;;5.80;5.20;;;;;;;16.63;51.36;98501.90;105192;1257;61207;-35
2023/12/05 00:09:31;;;;;;;6.00;5.30;;;;;;;16.63;51.29;98494.11;105222;1260;74574;-34
2023/12/05 00:11:59;;;;;;;5.90;5.30;;;;;;;16.62;51.38;98489.10;105353;1258;65282;-34
2023/12/05 00:14:26;;;;;;;5.80;5.20;;;;;;;16.61;51.33;98486.24;105309;1257;72413;-35
2023/12/05 00:16:53;;;;;;;5.30;4.80;;;;;;;16.61;51.33;98479.98;105235;1260;61233;-32
2023/12/05 00:19:21;;;;;;;5.50;4.90;;;;;;;16.62;51.36;98476.52;105144;1257;61280;-36
2023/12/05 00:21:48;;;;;;;6.00;5.10;;;;;;;16.62;51.30;98471.10;105348;1259;74603;-35
2023/12/05 00:24:16;;;;;;;6.40;5.30;;;;;;;16.61;51.26;98469.05;105588;1261;66312;-36
2023/12/05 00:26:44;;;;;;;5.80;5.20;;;;;;;16.61;51.25;98470.94;105582;1257;72700;-35
2023/12/05 00:29:11;;;;;;;5.90;5.40;;;;;;;16.61;51.27;98475.01;105255;1261;61268;-34
2023/12/05 00:31:38;;;;;;;7.30;5.30;;;;;;;16.60;51.23;98484.87;105411;1257;61289;-34
2023/12/05 00:34:06;;;;;;;6.00;5.40;;;;;;;16.60;51.24;98489.05;105166;1259;74522;-34
2023/12/05 00:36:33;;;;;;;7.80;5.50;;;;;;;16.60;51.28;98480.46;105216;1257;66083;-35
2023/12/05 00:39:01;;;;;;;6.20;5.40;;;;;;;16.60;51.18;98477.05;105138;1258;72420;-34
2023/12/05 00:41:28;;;;;;;6.80;5.40;;;;;;;16.60;51.22;98474.58;105414;1258;61262;-34
2023/12/05 00:43:56;;;;;;;6.00;5.20;;;;;;;16.59;51.26;98474.15;105575;1257;61344;-34
2023/12/05 00:46:23;;;;;;;8.80;5.40;;;;;;;16.59;51.22;98474.69;105460;1260;74302;-33
2023/12/05 00:48:51;;;;;;;5.90;5.20;;;;;;;16.59;51.17;98467.88;105183;1261;66135;-34
2023/12/05 00:51:18;;;;;;;6.00;5.10;;;;;;;16.58;51.22;98467.09;105216;1261;72764;-34
2023/12/05 00:53:46;;;;;;;6.40;5.10;;;;;;;16.58;51.20;98467.70;105232;1260;61347;-33
2023/12/05 00:56:14;;;;;;;6.60;5.30;;;;;;;16.58;51.18;98462.20;105439;1260;61363;-34
2023/12/05 00:58:42;;;;;;;5.80;5.20;;;;;;;16.58;51.27;98456.79;105259;1259;74686;-34
2023/12/05 01:01:09;;;;;;;8.70;5.60;;;;;;;16.58;51.16;98452.29;105543;1260;64912;-33
2023/12/05 01:03:36;;;;;;;6.00;5.40;;;;;;;16.57;51.21;98461.61;105516;1257;72344;-34
2023/12/05 01:06:04;;;;;;;5.60;5.00;;;;;;;16.57;51.16;98464.26;105468;1260;61257;-34
2023/12/05 01:08:33;;;;;;;7.10;5.40;;;;;;;16.57;51.20;98462.53;105383;1259;61241;-35
2023/12/05 01:11:00;;;;;;;6.50;5.80;;;;;;;16.57;51.11;98461.84;105324;1260;74600;-34
2023/12/05 01:13:27;;;;;;;5.80;5.20;;;;;;;16.57;51.17;98463.84;105505;1261;65318;-33
2023/12/05 01:15:55;;;;;;;7.20;5.40;;;;;;;16.56;51.20;98460.51;105547;1257;72691;-34
2023/12/05 01:18:23;;;;;;;6.00;5.40;;;;;;;16.56;51.19;98448.77;105261;1260;61272;-33
2023/12/05 01:20:50;;;;;;;7.00;5.30;;;;;;;16.56;51.07;98443.58;105482;1257;61266;-34
2023/12/05 01:23:18;;;;;;;6.80;5.70;;;;;;;16.56;51.09;98447.90;105533;1260;74419;-34
2023/12/05 01:25:45;;;;;;;7.40;5.60;;;;;;;16.56;51.10;98445.88;105397;1260;65855;-34
2023/12/05 01:28:12;;;;;;;6.50;5.60;;;;;;;16.55;51.07;98447.55;105159;1259;71665;-34
2023/12/05 01:30:41;;;;;;;6.20;5.30;;;;;;;16.55;51.18;98448.48;105657;1260;61182;-34
2023/12/05 01:33:09;;;;;;;6.00;5.40;;;;;;;16.56;51.11;98444.10;105232;1256;61265;-34
2023/12/05 01:35:36;;;;;;;7.00;5.60;;;;;;;16.55;51.11;98439.51;105580;1257;74687;-35
2023/12/05 01:38:03;;;;;;;6.90;5.80;;;;;;;16.55;51.06;98439.20;105224;1260;65026;-34
2023/12/05 01:40:31;;;;;;;6.50;5.70;;;;;;;16.54;51.10;98438.70;105975;1257;72630;-34
2023/12/05 01:42:58;;;;;;;7.00;5.80;;;;;;;16.54;51.06;98436.44;105594;1260;61201;-34
2023/12/05 01:45:26;;;;;;;6.70;5.60;;;;;;;16.54;51.07;98431.67;105620;1258;61200;-34
2023/12/05 01:47:53;;;;;;;9.50;5.80;;;;;;;16.54;51.04;98421.46;105532;1261;74646;-33
2023/12/05 01:50:23;;;;;;;6.50;5.70;;;;;;;16.54;51.07;98415.90;105371;1260;66022;-34
2023/12/05 01:52:54;;;;;;;6.30;5.70;;;;;;;16.54;51.04;98423.38;105338;1257;70838;-34
2023/12/05 01:55:21;;;;;;;6.10;5.50;;;;;;;16.54;51.14;98419.46;105273;1261;61240;-33
2023/12/05 01:57:49;;;;;;;6.10;5.50;;;;;;;16.54;51.12;98418.08;105318;1260;62011;-35
2023/12/05 02:00:17;;;;;;;7.60;5.80;;;;;;;16.53;51.00;98418.95;105109;1264;74446;-35
2023/12/05 02:02:44;;;;;;;7.10;5.90;;;;;;;16.53;51.00;98405.82;105543;1257;66363;-35
2023/12/05 02:05:13;;;;;;;6.00;5.40;;;;;;;16.53;50.93;98403.66;105594;1257;72414;-33
2023/12/05 02:07:41;;;;;;;6.10;5.50;;;;;;;16.53;51.01;98400.31;105433;1260;61382;-35
2023/12/05 02:10:10;;;;;;;6.60;5.80;;;;;;;16.52;51.07;98402.70;105579;1257;61488;-33
2023/12/05 02:12:40;;;;;;;6.30;5.40;;;;;;;16.52;51.01;98402.38;105429;1257;74419;-33
2023/12/05 02:15:08;;;;;;;9.00;5.60;;;;;;;16.52;50.99;98403.46;105482;1261;64904;-35
2023/12/05 02:17:42;;;;;;;8.20;5.80;;;;;;;16.52;50.96;98399.04;105300;1258;72670;-34
2023/12/05 02:20:20;;;;;;;6.10;5.40;;;;;;;16.52;50.93;98395.79;105205;1261;61932;-33
2023/12/05 02:23:14;;;;;;;6.40;5.50;;;;;;;16.52;51.00;98400.19;105169;1256;61317;-34
2023/12/05 02:25:59;;;;;;;6.00;5.40;;;;;;;16.51;50.99;98392.29;105422;1257;74533;-34
2023/12/05 02:28:26;;;;;;;7.60;6.30;;;;;;;16.51;50.91;98383.69;105379;1260;66538;-34
2023/12/05 02:30:54;;;;;;;6.40;5.70;;;;;;;16.50;50.99;98379.22;105525;1257;73064;-33
2023/12/05 02:33:21;;;;;;;6.60;5.80;;;;;;;16.50;51.01;98369.48;105402;1260;61244;-34
2023/12/05 02:35:51;;;;;;;8.50;5.90;;;;;;;16.50;50.92;98369.66;105253;1257;61264;-34
2023/12/05 02:38:26;;;;;;;6.60;5.40;;;;;;;16.50;51.00;98366.70;105288;1257;74438;-34
2023/12/05 02:40:56;;;;;;;;;;;;;;;16.50;51.02;98369.87;105102;1264;65945;-34
2023/12/05 02:43:31;;;;;;;5.90;5.20;;;;;;;16.49;50.97;98376.78;105330;1259;72682;-34
2023/12/05 02:45:58;;;;;;;7.30;5.90;;;;;;;16.48;50.94;98381.08;105376;1260;61272;-34
2023/12/05 02:48:35;;;;;;;6.60;5.90;;;;;;;16.48;51.02;98382.38;105446;1258;61424;-33
2023/12/05 02:51:04;;;;;;;6.30;5.30;;;;;;;16.48;51.00;98385.79;105460;1257;74581;-35
2023/12/05 02:53:31;;;;;;;6.90;5.70;;;;;;;16.48;50.94;98384.92;105204;1261;66286;-33
2023/12/05 02:55:58;;;;;;;6.90;5.60;;;;;;;16.48;50.90;98384.76;105278;1257;72647;-34
2023/12/05 02:58:26;;;;;;;5.90;5.40;;;;;;;16.47;50.88;98388.98;105474;1260;61140;-34
2023/12/05 03:00:53;;;;;;;6.60;5.70;;;;;;;16.47;51.02;98391.75;105454;1257;61238;-34
2023/12/05 03:03:21;;;;;;;6.10;5.50;;;;;;;16.47;50.90;98388.89;105179;1257;74534;-34
2023/12/05 03:05:48;;;;;;;6.10;5.40;;;;;;;16.47;50.89;98392.29;105355;1260;65825;-32
2023/12/05 03:08:16;;;;;;;7.80;5.70;;;;;;;16.47;50.87;98389.36;105465;1257;72648;-33
2023/12/05 03:10:43;;;;;;;6.10;5.50;;;;;;;16.47;50.91;98383.88;105321;1261;61168;-34
2023/12/05 03:13:24;;;;;;;6.60;5.70;;;;;;;16.47;50.91;98391.05;105288;1257;61360;-34
2023/12/05 03:15:51;;;;;;;6.30;5.50;;;;;;;16.47;50.85;98393.44;105118;1260;75152;-35
2023/12/05 03:18:18;;;;;;;7.40;6.20;;;;;;;16.46;50.83;98394.56;105202;1258;66165;-34
2023/12/05 03:20:46;;;;;;;7.20;6.00;;;;;;;16.46;50.86;98394.44;105623;1259;72497;-34
2023/12/05 03:23:17;;;;;;;6.10;5.50;;;;;;;16.46;50.91;98395.90;105562;1260;61775;-34
2023/12/05 03:25:44;;;;;;;6.90;5.90;;;;;;;16.47;50.83;98401.12;105452;1258;61259;-34
2023/12/05 03:28:11;;;;;;;7.00;5.90;;;;;;;16.46;50.82;98394.11;105277;1257;74610;-33
2023/12/05 03:30:39;;;;;;;7.00;6.10;;;;;;;16.46;50.83;98385.75;105542;1258;66348;-34
2023/12/05 03:33:06;;;;;;;6.50;5.60;;;;;;;16.46;50.78;98387.31;105214;1258;72680;-32
2023/12/05 03:35:34;;;;;;;6.10;5.50;;;;;;;16.46;50.88;98384.29;105959;1257;61234;-35
2023/12/05 03:38:01;;;;;;;6.20;5.60;;;;;;;16.46;50.74;98380.89;105305;1257;61319;-33
2023/12/05 03:40:28;;;;;;;7.30;6.00;;;;;;;16.46;50.82;98380.83;105316;1257;73983;-35
2023/12/05 03:42:56;;;;;;;7.20;5.70;;;;;;;16.46;50.81;98376.17;105616;1261;66062;-35
2023/12/05 03:45:23;;;;;;;7.90;5.90;;;;;;;16.45;50.72;98375.09;105558;1259;72422;-32
2023/12/05 03:47:51;;;;;;;8.60;6.00;;;;;;;16.46;50.83;98379.36;105270;1260;61236;-33
2023/12/05 03:50:18;;;;;;;8.10;5.70;;;;;;;16.46;50.76;98374.72;105199;1261;61334;-34
2023/12/05 03:52:46;;;;;;;6.60;5.50;;;;;;;16.46;50.69;98366.60;105361;1257;74589;-34
2023/12/05 03:55:13;;;;;;;6.00;5.40;;;;;;;16.46;50.62;98365.77;105522;1260;67488;-34
2023/12/05 03:57:41;;;;;;;6.70;5.80;;;;;;;16.46;50.57;98364.98;105642;1257;72748;-34
2023/12/05 04:00:10;;;;;;;7.10;5.70;;;;;;;16.46;50.71;98362.97;105587;1261;61237;-33
2023/12/05 04:02:37;;;;;;;6.20;5.40;;;;;;;16.45;50.55;98362.50;105548;1257;61215;-34
2023/12/05 04:05:06;;;;;;;6.50;5.80;;;;;;;16.46;50.65;98355.95;105346;1261;74570;-34
2023/12/05 04:07:36;;;;;;;7.40;5.80;;;;;;;16.45;50.67;98353.15;105268;1259;66452;-34
2023/12/05 04:10:04;;;;;;;7.60;5.40;;;;;;;16.46;50.56;98356.17;105192;1259;71389;-34
2023/12/05 04:12:32;;;;;;;7.20;5.30;;;;;;;16.46;50.56;98362.52;105321;1258;61719;-34
2023/12/05 04:14:59;;;;;;;8.30;5.70;;;;;;;16.46;50.58;98359.73;105476;1257;61350;-33
2023/12/05 04:17:26;;;;;;;7.00;5.80;;;;;;;16.46;50.54;98358.13;105304;1258;74473;-34
2023/12/05 04:19:54;;;;;;;6.80;5.60;;;;;;;16.45;50.52;98354.77;105545;1261;65605;-33
2023/12/05 04:22:23;;;;;;;6.50;5.70;;;;;;;16.46;50.52;98349.68;105259;1259;72636;-33
2023/12/05 04:24:51;;;;;;;6.60;5.60;;;;;;;16.45;50.56;98347.05;105246;1261;61256;-35
2023/12/05 04:27:18;;;;;;;6.00;5.40;;;;;;;16.46;50.50;98348.06;105469;1257;61242;-34
2023/12/05 04:29:46;;;;;;;7.70;5.50;;;;;;;16.46;50.40;98354.17;105501;1259;75030;-34
2023/12/05 04:32:13;;;;;;;6.40;5.60;;;;;;;16.46;50.44;98351.77;105236;1261;65822;-34
2023/12/05 04:34:43;;;;;;;7.40;5.60;;;;;;;16.47;50.51;98350.25;105095;1257;72586;-33
2023/12/05 04:37:11;;;;;;;6.40;5.50;;;;;;;16.45;50.42;98340.33;105563;1260;61873;-32
2023/12/05 04:39:39;;;;;;;6.10;5.50;;;;;;;16.46;50.41;98338.96;105389;1259;61383;-33
2023/12/05 04:42:06;;;;;;;8.50;5.80;;;;;;;16.46;50.52;98334.27;105216;1261;74582;-34
2023/12/05 04:44:33;;;;;;;6.10;5.50;;;;;;;16.46;50.55;98327.92;105223;1261;65971;-33
2023/12/05 04:47:03;;;;;;;6.10;5.60;;;;;;;16.46;50.50;98321.81;105330;1259;72633;-33
2023/12/05 04:49:31;;;;;;;6.40;5.80;;;;;;;16.47;50.57;98328.08;105489;1257;61456;-34
2023/12/05 04:51:58;;;;;;;7.00;5.50;;;;;;;16.47;50.46;98330.73;105431;1258;61310;-33
2023/12/05 04:54:30;;;;;;;6.40;5.70;;;;;;;16.47;50.35;98332.02;105558;1262;74718;-32
2023/12/05 04:56:57;;;;;;;8.70;6.10;;;;;;;16.47;50.44;98339.36;105477;1260;66279;-34
2023/12/05 04:59:24;;;;;;;6.90;5.40;;;;;;;16.47;50.37;98336.23;105589;1258;72365;-34
2023/12/05 05:01:53;;;;;;;6.30;5.40;;;;;;;16.47;50.47;98332.27;105474;1260;61280;-33
2023/12/05 05:04:20;;;;;;;6.70;5.80;;;;;;;16.47;50.44;98320.98;105269;1259;61354;-34
2023/12/05 05:06:48;;;;;;;6.40;5.10;;;;;;;16.47;50.37;98327.63;105155;1260;74599;-34
2023/12/05 05:09:16;;;;;;;6.20;5.60;;;;;;;16.47;50.48;98329.86;105159;1260;66215;-34
2023/12/05 05:11:43;;;;;;;6.50;5.80;;;;;;;16.47;50.34;98329.27;105210;1259;73090;-35
2023/12/05 05:14:10;;;;;;;7.20;5.80;;;;;;;16.47;50.36;98329.20;105181;1260;61253;-33
2023/12/05 05:16:38;;;;;;;6.80;5.70;;;;;;;16.47;50.44;98328.17;105215;1259;61238;-35
2023/12/05 05:19:05;;;;;;;6.40;5.40;;;;;;;16.47;50.41;98328.64;105343;1258;75644;-36
2023/12/05 05:21:33;;;;;;;7.00;5.80;;;;;;;16.48;50.33;98330.91;105623;1260;66013;-35
2023/12/05 05:24:00;;;;;;;5.80;5.30;;;;;;;16.47;50.51;98326.26;105591;1258;72671;-35
2023/12/05 05:26:28;;;;;;;5.40;4.90;;;;;;;16.47;50.33;98315.45;105562;1261;61245;-34
2023/12/05 05:28:55;;;;;;;6.90;5.30;;;;;;;16.47;50.37;98316.43;105514;1256;61313;-34
2023/12/05 05:31:23;;;;;;;6.00;5.30;;;;;;;16.48;50.39;98308.36;105274;1257;74546;-33
2023/12/05 05:33:50;;;;;;;6.40;5.60;;;;;;;16.48;50.32;98301.34;105517;1261;64744;-33
2023/12/05 05:36:18;;;;;;;6.50;5.90;;;;;;;16.48;50.34;98300.95;105271;1258;71462;-34
2023/12/05 05:38:45;;;;;;;6.60;5.60;;;;;;;16.48;50.31;98304.04;105306;1259;61241;-34
2023/12/05 05:41:13;;;;;;;6.30;5.20;;;;;;;16.48;50.33;98303.44;105196;1258;61267;-34
2023/12/05 05:43:40;;;;;;;6.00;5.30;;;;;;;16.48;50.39;98296.02;105175;1259;74597;-35
2023/12/05 05:46:07;;;;;;;6.30;5.60;;;;;;;16.48;50.38;98292.84;105230;1261;66018;-35
2023/12/05 05:48:35;;;;;;;7.00;5.50;;;;;;;16.48;50.37;98290.73;105514;1257;72692;-34
2023/12/05 05:51:03;;;;;;;7.90;5.70;;;;;;;16.47;50.24;98289.50;105288;1261;61271;-33
2023/12/05 05:53:30;;;;;;;7.20;6.30;;;;;;;16.47;50.10;98291.41;105168;1259;61352;-33
2023/12/05 05:56:01;;;;;;;11.90;6.80;;;;;;;16.46;50.15;98292.17;106844;1257;74400;-34
2023/12/05 05:58:28;;;;;;;7.20;6.30;;;;;;;16.47;50.05;98289.55;105145;1260;65970;-34
2023/12/05 06:00:56;;;;;;;7.70;6.80;;;;;;;16.47;50.07;98287.77;105166;1259;72437;-33
2023/12/05 06:03:26;;;;;;;9.90;9.00;;;;;;;16.47;50.12;98282.81;105079;1259;61294;-37
2023/12/05 06:05:54;;;;;;;12.10;10.20;;;;;;;16.46;49.15;98271.05;105199;1258;61245;-36
2023/12/05 06:08:22;;;;;;;13.30;11.90;;;;;;;16.40;47.44;98268.59;105152;1261;74594;-36
2023/12/05 06:10:49;;;;;;;16.60;14.10;;;;;;;16.30;46.03;98269.61;105878;1257;65044;-36
2023/12/05 06:13:16;;;;;;;16.00;14.30;;;;;;;16.19;44.88;98270.13;105281;1259;72404;-36
2023/12/05 06:15:44;;;;;;;16.00;14.30;;;;;;;16.06;44.16;98267.26;105686;1261;61339;-36
2023/12/05 06:18:15;;;;;;;17.90;15.10;;;;;;;15.94;43.89;98265.61;105031;1259;61357;-36
2023/12/05 06:20:43;;;;;;;16.40;14.50;;;;;;;15.84;43.95;98254.05;105330;1259;74671;-36
2023/12/05 06:23:10;;;;;;;20.10;13.30;;;;;;;15.81;44.70;98248.95;105108;1261;66261;-36
2023/12/05 06:25:39;;;;;;;14.70;12.20;;;;;;;15.83;45.34;98247.91;104997;1261;72671;-36
2023/12/05 06:28:06;;;;;;;14.90;11.60;;;;;;;15.87;45.68;98247.52;105346;1261;61274;-35
2023/12/05 06:30:33;;;;;;;12.20;10.30;;;;;;;15.90;46.27;98240.98;105273;1258;61348;-36
2023/12/05 06:33:01;;;;;;;11.20;9.60;;;;;;;15.94;46.55;98241.45;105127;1260;75212;-36
2023/12/05 06:35:28;;;;;;;11.60;10.10;;;;;;;15.98;46.81;98240.24;105909;1261;67061;-36
2023/12/05 06:37:56;;;;;;;15.10;9.70;;;;;;;16.02;47.12;98239.80;105426;1259;72443;-39
2023/12/05 06:40:24;;;;;;;12.30;10.10;;;;;;;16.05;47.31;98250.45;105357;1261;61255;-37
2023/12/05 06:42:51;;;;;;;10.40;8.90;;;;;;;16.08;47.56;98252.59;105637;1259;61411;-37
2023/12/05 06:45:18;;;;;;;12.70;9.10;;;;;;;16.11;47.67;98255.88;105309;1257;74576;-37
2023/12/05 06:47:46;;;;;;;10.90;9.30;;;;;;;16.14;47.80;98254.41;105488;1261;66005;-37
2023/12/05 06:50:15;;;;;;;10.80;9.50;;;;;;;16.17;47.79;98257.30;105319;1259;72897;-36
2023/12/05 06:52:42;;;;;;;12.20;9.20;;;;;;;16.19;47.82;98254.21;105180;1258;61318;-36
2023/12/05 06:55:10;;;;;;;10.60;9.10;;;;;;;16.21;47.91;98264.41;105239;1259;61424;-37
2023/12/05 06:57:37;;;;;;;13.60;8.90;;;;;;;16.22;47.89;98268.73;105233;1261;74618;-38
2023/12/05 07:00:08;;;;;;;13.70;9.20;;;;;;;16.24;48.15;98269.17;105003;1258;196592;-37
2023/12/05 07:02:38;;;;;;;10.10;7.90;;;;;;;16.25;48.18;98285.46;105231;1261;70213;-38
2023/12/05 07:05:09;;;;;;;10.10;8.70;;;;;;;16.26;48.38;98290.00;104976;1259;61326;-38
2023/12/05 07:07:37;;;;;;;9.90;8.50;;;;;;;16.28;48.51;98292.98;105058;1261;61240;-35
2023/12/05 07:10:05;;;;;;;12.10;8.20;;;;;;;16.29;48.56;98290.04;105202;1262;74606;-37
2023/12/05 07:12:33;;;;;;;11.20;9.10;;;;;;;16.30;48.72;98280.59;105370;1260;66321;-35
2023/12/05 07:15:02;;;;;;;10.80;8.50;;;;;;;16.32;48.73;98287.77;105170;1259;71450;-36
2023/12/05 07:17:29;;;;;;;11.60;8.20;;;;;;;16.33;48.78;98284.27;105187;1261;61252;-35
2023/12/05 07:19:57;;;;;;;10.90;8.40;;;;;;;16.36;48.89;98273.49;105252;1256;61252;-36
2023/12/05 07:22:24;;;;;;;10.80;8.30;;;;;;;16.37;49.01;98272.63;105082;1259;73412;-35
2023/12/05 07:24:52;;;;;;;11.70;8.90;;;;;;;16.39;49.33;98268.14;105070;1258;66059;-36
2023/12/05 07:27:20;;;;;;;13.10;8.00;;;;;;;16.41;49.57;98265.59;105071;1261;72802;-35
2023/12/05 07:29:47;;;;;;;9.60;8.60;;;;;;;16.42;49.54;98262.50;105138;1261;61258;-36
2023/12/05 07:32:15;;;;;;;10.00;8.10;;;;;;;16.43;49.70;98257.98;105184;1257;61217;-34
2023/12/05 07:34:43;;;;;;;11.30;7.90;;;;;;;16.45;49.82;98248.15;105010;1256;74699;-36
2023/12/05 07:37:11;;;;;;;9.40;7.60;;;;;;;16.47;49.83;98244.05;104906;1262;67255;-36
2023/12/05 07:39:38;;;;;;;10.20;7.90;;;;;;;16.48;49.91;98235.59;105043;1259;73707;-37
2023/12/05 07:42:06;;;;;;;9.10;7.80;;;;;;;16.49;49.82;98221.81;105123;1265;61738;-35
2023/12/05 07:44:33;;;;;;;12.10;8.00;;;;;;;16.50;49.93;98218.69;104999;1259;61347;-35
2023/12/05 07:47:00;;;;;;;8.50;7.70;;;;;;;16.52;49.94;98216.54;105019;1259;74373;-36
2023/12/05 07:49:28;;;;;;;12.60;8.30;;;;;;;16.52;50.03;98221.83;105053;1261;66200;-35
2023/12/05 07:51:55;;;;;;;8.50;7.40;;;;;;;16.53;50.02;98220.71;104927;1259;72701;-37
2023/12/05 07:54:24;;;;;;;8.30;7.40;;;;;;;16.54;50.10;98226.14;105121;1261;61364;-35
2023/12/05 07:56:53;;;;;;;8.30;7.20;;;;;;;16.55;50.09;98230.38;105176;1259;61364;-36
2023/12/05 07:59:21;;;;;;;10.30;7.60;;;;;;;16.56;50.24;98227.55;105055;1261;74674;-35
2023/12/05 08:01:48;;;;;;;8.80;7.60;;;;;;;16.58;50.25;98226.09;104894;1261;66363;-34
2023/12/05 08:04:16;;;;;;;8.40;7.20;;;;;;;16.59;50.33;98223.49;105231;1262;74089;-37
2023/12/05 08:06:45;;;;;;;8.60;7.60;;;;;;;16.60;50.50;98225.97;104897;1264;61344;-37
2023/12/05 08:09:14;;;;;;;9.00;7.30;;;;;;;16.62;50.74;98212.52;104976;1257;61290;-35
2023/12/05 08:11:42;;;;;;;8.10;6.80;;;;;;;16.64;50.86;98220.39;105176;1258;73642;-36
2023/12/05 08:14:13;;;;;;;12.20;6.90;;;;;;;16.66;51.06;98215.99;105192;1264;67481;-35
2023/12/05 08:16:42;;;;;;;10.20;7.40;;;;;;;16.67;51.11;98218.98;105366;1264;72973;-35
2023/12/05 08:19:12;;;;;;;8.00;7.20;;;;;;;16.69;51.16;98215.73;105156;1264;61206;-36
2023/12/05 08:21:39;;;;;;;8.30;6.70;;;;;;;16.69;51.27;98204.02;104905;1258;61395;-34
2023/12/05 08:24:07;;;;;;;9.60;7.40;;;;;;;16.71;51.39;98197.46;105138;1261;75571;-39
2023/12/05 08:26:34;;;;;;;14.70;7.40;;;;;;;16.74;51.57;98187.96;105086;1261;66001;-38
2023/12/05 08:29:02;;;;;;;12.60;7.40;;;;;;;16.77;52.20;98187.89;105007;1260;73972;-38
2023/12/05 08:31:31;;;;;;;9.20;7.60;;;;;;;16.82;52.34;98187.89;105217;1262;61261;-36
2023/12/05 08:33:59;;;;;;;9.40;7.50;;;;;;;16.87;52.48;98178.55;104941;1262;61367;-37
2023/12/05 08:36:27;;;;;;;7.70;6.90;;;;;;;16.92;52.57;98183.92;105329;1262;75347;-33
2023/12/05 08:38:55;;;;;;;7.40;6.50;;;;;;;16.97;52.77;98184.35;105111;1261;64783;-37
2023/12/05 08:41:23;;;;;;;8.20;6.90;;;;;;;17.00;52.91;98184.48;105210;1257;71699;-37
2023/12/05 08:43:53;;;;;;;10.60;6.40;;;;;;;17.04;52.92;98189.59;104868;1260;61213;-37
2023/12/05 08:46:22;;;;;;;7.30;6.60;;;;;;;17.08;52.88;98194.44;104848;1259;61303;-35
2023/12/05 08:48:52;;;;;;;7.00;6.20;;;;;;;17.10;52.87;98193.69;105338;1260;74595;-34
2023/12/05 08:51:24;;;;;;;10.20;6.80;;;;;;;17.13;52.92;98192.62;105015;1265;65054;-38
2023/12/05 08:53:51;;;;;;;7.90;6.80;;;;;;;17.14;52.81;98190.65;105162;1258;73010;-36
2023/12/05 08:56:20;;;;;;;6.90;6.20;;;;;;;17.16;52.75;98177.27;105044;1261;61230;-35
2023/12/05 08:58:47;;;;;;;6.60;6.00;;;;;;;17.17;52.66;98188.05;105066;1259;61271;-36
2023/12/05 09:01:14;;;;;;;6.90;6.20;;;;;;;17.18;52.58;98188.80;105203;1261;75296;-36
2023/12/05 09:03:42;;;;;;;7.40;6.20;;;;;;;17.20;52.58;98179.28;104990;1262;67057;-35
2023/12/05 09:06:10;;;;;;;7.90;6.40;;;;;;;17.20;52.65;98176.44;105311;1261;73071;-36
2023/12/05 09:08:39;;;;;;;7.60;6.30;;;;;;;17.22;52.78;98169.23;105313;1261;61366;-35
2023/12/05 09:11:07;;;;;;;7.00;6.20;;;;;;;17.23;52.67;98176.92;105096;1259;61411;-34
2023/12/05 09:13:39;;;;;;;7.60;6.30;;;;;;;17.25;52.74;98166.79;105128;1262;75613;-35
2023/12/05 09:16:08;;;;;;;8.20;5.90;;;;;;;17.26;52.75;98156.85;104856;1263;66182;-35
2023/12/05 09:18:37;;;;;;;7.30;6.20;;;;;;;17.25;52.91;98144.47;105050;1257;72715;-33
2023/12/05 09:21:06;;;;;;;7.50;6.10;;;;;;;17.26;52.81;98142.88;105162;1266;61367;-36
2023/12/05 09:23:34;;;;;;;9.00;6.30;;;;;;;17.25;52.82;98142.14;105101;1256;61815;-36
2023/12/05 09:26:03;;;;;;;6.30;5.60;;;;;;;17.25;52.87;98140.17;104799;1259;74452;-35
2023/12/05 09:28:32;;;;;;;7.40;6.00;;;;;;;17.22;52.83;98133.91;105004;1260;67212;-35
2023/12/05 09:31:05;;;;;;;7.90;6.10;;;;;;;17.21;52.87;98124.60;106080;1261;71472;-35
2023/12/05 09:33:34;;;;;;;7.30;6.10;;;;;;;17.20;52.74;98113.97;105577;1256;61221;-36
2023/12/05 09:36:30;;;;;;;6.60;5.90;;;;;;;17.19;52.81;98114.55;105079;1259;61138;-36
2023/12/05 09:39:31;;;;;;;8.80;6.70;;;;;;;17.19;52.72;98115.61;105426;1257;75618;-34
2023/12/05 09:42:03;;;;;;;7.00;6.30;;;;;;;17.17;52.78;98109.73;105478;1263;64990;-35
2023/12/05 09:44:31;;;;;;;8.50;6.40;;;;;;;17.17;52.85;98103.46;105020;1259;72708;-36
2023/12/05 09:47:04;;;;;;;8.70;6.30;;;;;;;17.16;52.73;98100.56;105345;1261;61727;-36
2023/12/05 09:49:45;;;;;;;8.70;7.10;;;;;;;17.15;52.73;98089.86;105235;1259;61788;-36
2023/12/05 09:52:17;;;;;;;7.00;6.20;;;;;;;17.14;52.74;98084.44;105402;1263;73285;-36
2023/12/05 09:54:45;;;;;;;8.50;6.50;;;;;;;17.14;52.68;98080.61;105615;1265;66909;-36
2023/12/05 09:57:13;;;;;;;9.00;6.50;;;;;;;17.14;52.73;98084.56;105178;1260;72584;-36
2023/12/05 09:59:41;;;;;;;9.20;6.80;;;;;;;17.13;52.74;98079.41;104957;1259;61369;-35
2023/12/05 10:02:08;;;;;;;10.50;6.70;;;;;;;17.12;52.83;98078.40;104794;1262;61371;-36
2023/12/05 10:04:43;;;;;;;9.10;6.70;;;;;;;17.12;52.79;98069.96;105479;1260;75415;-37
2023/12/05 10:07:11;;;;;;;9.20;6.70;;;;;;;17.12;52.93;98063.79;105781;1262;64799;-34
2023/12/05 10:09:42;;;;;;;9.40;7.10;;;;;;;17.12;52.91;98058.92;106370;1261;72860;-35
2023/12/05 10:12:11;;;;;;;8.50;6.80;;;;;;;17.12;53.03;98053.04;105336;1262;61440;-33
2023/12/05 10:14:38;;;;;;;8.10;6.60;;;;;;;17.11;53.02;98046.41;104924;1263;61323;-34
2023/12/05 10:17:06;;;;;;;9.10;6.70;;;;;;;17.11;53.01;98041.86;105449;1259;75604;-34
2023/12/05 10:19:34;;;;;;;9.80;6.60;;;;;;;17.10;53.09;98043.83;107665;1262;65081;-48
2023/12/05 10:22:04;;;;;;;8.50;6.70;;;;;;;17.10;53.14;98047.55;104972;1263;72588;-36
2023/12/05 10:24:47;;;;;;;8.20;6.70;;;;;;;17.10;53.12;98058.45;104979;1257;61361;-35
2023/12/05 10:27:15;;;;;;;9.20;7.00;;;;;;;17.09;53.18;98055.78;105334;1259;61245;-36
2023/12/05 10:29:42;;;;;;;8.20;6.70;;;;;;;17.09;53.18;98053.14;105483;1262;75517;-36
2023/12/05 10:32:11;;;;;;;7.50;6.50;;;;;;;17.08;53.23;98056.90;105513;1262;67017;-35
2023/12/05 10:34:47;;;;;;;8.80;6.50;;;;;;;17.08;53.29;98057.89;106118;1262;72676;-34
2023/12/05 10:37:15;;;;;;;8.70;6.70;;;;;;;17.07;53.28;98064.14;105432;1261;61388;-36
2023/12/05 10:39:43;;;;;;;6.90;6.20;;;;;;;17.07;53.30;98062.81;105482;1260;61382;-36
2023/12/05 10:42:12;;;;;;;10.80;6.90;;;;;;;17.06;53.26;98063.32;104942;1262;74660;-36
2023/12/05 10:44:39;;;;;;;26.00;7.80;;;;;;;17.05;53.19;98063.21;105104;1260;65361;-36
2023/12/05 10:47:07;;;;;;;26.80;7.90;;;;;;;17.04;53.30;98070.69;107457;1262;73401;-36
2023/12/05 10:49:34;;;;;;;15.80;7.50;;;;;;;17.04;53.39;98071.78;104634;1262;61317;-34
2023/12/05 10:52:03;;;;;;;20.10;8.40;;;;;;;17.03;53.39;98070.25;105102;1259;61356;-35
2023/12/05 10:54:30;;;;;;;16.30;7.40;;;;;;;17.03;53.50;98074.04;105882;1258;75790;-35
2023/12/05 10:56:58;;;;;;;14.30;7.40;;;;;;;17.02;53.51;98074.79;105149;1262;66082;-35
2023/12/05 10:59:27;;;;;;;14.90;7.50;;;;;;;17.02;53.36;98077.02;105376;1262;72714;-35
2023/12/05 11:01:57;;;;;;;18.60;7.00;;;;;;;17.01;53.27;98079.96;105287;1262;61246;-35
2023/12/05 11:04:25;;;;;;;17.90;8.10;;;;;;;17.00;53.32;98073.54;105471;1261;61362;-33
2023/12/05 11:06:53;;;;;;;15.00;7.70;;;;;;;17.00;53.17;98072.98;105397;1257;74637;-35
2023/12/05 11:09:22;;;;;;;11.00;7.50;;;;;;;16.98;53.15;98070.61;105349;1262;66315;-36
2023/12/05 11:11:51;;;;;;;12.90;6.90;;;;;;;16.97;53.18;98074.88;105390;1262;73645;-35
2023/12/05 11:14:19;;;;;;;14.90;7.50;;;;;;;16.96;53.16;98083.18;107767;1261;61301;-36
2023/12/05 11:16:49;;;;;;;13.30;6.90;;;;;;;16.95;53.14;98082.70;105268;1262;61438;-36
2023/12/05 11:19:34;;;;;;;17.90;8.00;;;;;;;16.93;53.00;98083.39;105039;1261;75594;-34
2023/12/05 11:22:23;;;;;;;11.80;6.90;;;;;;;16.92;53.03;98080.96;107356;1262;66165;-35
2023/12/05 11:25:11;;;;;;;14.00;6.80;;;;;;;16.91;53.02;98081.67;105390;1261;72366;-35
2023/12/05 11:28:01;;;;;;;11.10;6.40;;;;;;;16.89;53.01;98076.42;108566;1257;61258;-36
2023/12/05 11:30:44;;;;;;;10.30;6.70;;;;;;;16.88;53.03;98074.15;108771;1257;60153;-36
2023/12/05 11:33:18;;;;;;;9.50;6.80;;;;;;;16.87;52.96;98073.86;105172;1259;74627;-35